createdAt,value
2022-12-05T00:00:57.830Z,47.40
2022-12-05T00:03:26.878Z,47.30
2022-12-05T00:05:54.538Z,47.10
2022-12-05T00:08:22.179Z,47.00
2022-12-05T00:10:49.841Z,46.80
2022-12-05T00:13:17.502Z,46.70
2022-12-05T00:15:45.139Z,46.50
2022-12-05T00:18:12.784Z,46.40
2022-12-05T00:20:46.926Z,46.10
2022-12-05T00:23:14.586Z,45.90
2022-12-05T00:25:42.346Z,45.90
2022-12-05T00:28:09.994Z,45.70
2022-12-05T00:30:40.436Z,45.50
2022-12-05T00:33:08.089Z,45.50
2022-12-05T00:35:35.822Z,45.20
2022-12-05T00:38:04.804Z,44.90
2022-12-05T00:40:32.458Z,45.20
2022-12-05T00:43:00.121Z,44.70
2022-12-05T00:45:27.800Z,45.00
2022-12-05T00:47:55.494Z,44.50
2022-12-05T00:50:23.155Z,44.30
2022-12-05T00:52:50.839Z,44.30
2022-12-05T00:55:19.835Z,44.00
2022-12-05T00:57:47.469Z,44.00
2022-12-05T01:00:15.926Z,43.80
2022-12-05T01:02:43.619Z,43.60
2022-12-05T01:05:11.325Z,44.00
2022-12-05T01:07:39.029Z,43.50
2022-12-05T01:10:08.145Z,43.50
2022-12-05T01:12:37.120Z,43.10
2022-12-05T01:15:05.316Z,43.10
2022-12-05T01:17:32.985Z,42.90
2022-12-05T01:20:00.607Z,42.70
2022-12-05T01:22:28.242Z,42.70
2022-12-05T01:24:55.879Z,42.50
2022-12-05T01:27:23.535Z,42.40
2022-12-05T01:29:52.485Z,42.40
2022-12-05T01:32:20.227Z,42.20
2022-12-05T01:34:47.947Z,42.10
2022-12-05T01:37:15.574Z,41.80
2022-12-05T01:39:43.283Z,41.80
2022-12-05T01:42:12.655Z,41.50
2022-12-05T01:45:08.530Z,41.50
2022-12-05T01:47:36.855Z,41.10
2022-12-05T01:50:05.314Z,41.20
2022-12-05T01:52:32.976Z,41.00
2022-12-05T01:55:03.927Z,41.10
2022-12-05T01:57:31.749Z,41.10
2022-12-05T02:00:01.199Z,41.20
2022-12-05T02:02:30.526Z,40.70
2022-12-05T02:05:02.118Z,40.50
2022-12-05T02:07:30.076Z,40.30
2022-12-05T02:09:57.951Z,40.50
2022-12-05T02:12:25.748Z,40.90
2022-12-05T02:15:01.704Z,40.10
2022-12-05T02:17:33.343Z,39.70
2022-12-05T02:20:07.927Z,39.80
2022-12-05T02:23:12.271Z,39.60
2022-12-05T02:26:03.105Z,39.40
2022-12-05T02:28:46.182Z,39.80
2022-12-05T02:31:18.286Z,40.00
2022-12-05T02:33:47.196Z,39.50
2022-12-05T02:36:17.117Z,39.60
2022-12-05T02:38:48.744Z,39.50
2022-12-05T02:41:17.966Z,39.50
2022-12-05T02:43:47.845Z,39.70
2022-12-05T02:46:18.345Z,39.60
2022-12-05T02:48:46.425Z,39.40
2022-12-05T02:51:15.182Z,39.60
2022-12-05T02:53:42.900Z,39.60
2022-12-05T02:56:10.694Z,39.70
2022-12-05T02:58:41.731Z,39.70
2022-12-05T03:01:09.430Z,39.60
2022-12-05T03:03:38.490Z,39.70
2022-12-05T03:06:07.621Z,39.50
2022-12-05T03:08:36.921Z,39.60
2022-12-05T03:11:04.619Z,39.50
2022-12-05T03:13:34.310Z,39.40
2022-12-05T03:16:03.566Z,39.60
2022-12-05T03:18:32.248Z,39.80
2022-12-05T03:21:04.779Z,39.50
2022-12-05T03:23:33.663Z,39.40
2022-12-05T03:26:11.886Z,39.70
2022-12-05T03:28:45.041Z,39.80
2022-12-05T03:31:14.196Z,39.60
2022-12-05T03:33:42.873Z,39.90
2022-12-05T03:36:14.027Z,39.70
2022-12-05T03:38:45.414Z,39.70
2022-12-05T03:41:16.124Z,39.50
2022-12-05T03:43:46.881Z,39.50
2022-12-05T03:46:17.499Z,39.60
2022-12-05T03:48:48.587Z,39.70
2022-12-05T03:51:17.668Z,39.50
2022-12-05T03:53:46.784Z,39.60
2022-12-05T03:56:15.750Z,39.80
2022-12-05T03:58:45.706Z,39.60
2022-12-05T04:01:13.556Z,39.80
2022-12-05T04:03:42.687Z,39.70
2022-12-05T04:06:23.096Z,40.50
2022-12-05T04:08:53.190Z,39.50
2022-12-05T04:11:22.232Z,39.90
2022-12-05T04:13:51.409Z,40.20
2022-12-05T04:16:38.593Z,39.80
2022-12-05T04:19:07.477Z,39.80
2022-12-05T04:21:40.221Z,39.80
2022-12-05T04:24:27.577Z,39.70
2022-12-05T04:27:01.470Z,39.90
2022-12-05T04:29:31.723Z,39.90
2022-12-05T04:32:00.453Z,39.90
2022-12-05T04:34:29.186Z,39.90
2022-12-05T04:36:59.219Z,39.90
2022-12-05T04:39:28.161Z,40.50
2022-12-05T04:41:56.740Z,39.90
2022-12-05T04:44:26.746Z,40.10
2022-12-05T04:46:54.725Z,40.00
2022-12-05T04:49:23.329Z,40.10
2022-12-05T04:51:51.131Z,40.00
2022-12-05T04:54:21.938Z,40.20
2022-12-05T04:56:49.728Z,40.10
2022-12-05T04:59:17.403Z,40.20
2022-12-05T05:01:47.489Z,40.20
2022-12-05T05:04:17.695Z,40.30
2022-12-05T05:06:45.400Z,40.30
2022-12-05T05:09:13.116Z,40.20
2022-12-05T05:11:42.147Z,40.20
2022-12-05T05:14:09.876Z,40.20
2022-12-05T05:16:38.542Z,40.30
2022-12-05T05:19:06.559Z,40.40
2022-12-05T05:21:35.171Z,40.50
2022-12-05T05:24:03.469Z,40.40
2022-12-05T05:26:31.442Z,40.40
2022-12-05T05:29:00.560Z,40.50
2022-12-05T05:31:28.274Z,40.40
2022-12-05T05:33:56.935Z,40.60
2022-12-05T05:36:25.582Z,40.70
2022-12-05T05:38:54.384Z,40.70
2022-12-05T05:41:22.938Z,40.70
2022-12-05T05:43:50.762Z,40.60
2022-12-05T05:46:21.249Z,40.60
2022-12-05T05:48:49.134Z,40.70
2022-12-05T05:51:16.938Z,40.70
2022-12-05T05:53:44.930Z,40.90
2022-12-05T05:56:17.217Z,40.80
2022-12-05T05:58:49.810Z,41.00
2022-12-05T06:01:20.198Z,40.90
2022-12-05T06:03:48.229Z,40.90
2022-12-05T06:06:16.500Z,41.00
2022-12-05T06:08:49.235Z,41.80
2022-12-05T06:11:24.844Z,41.00
2022-12-05T06:13:54.031Z,41.80
2022-12-05T06:16:23.237Z,41.20
2022-12-05T06:18:51.066Z,41.10
2022-12-05T06:21:18.789Z,41.00
2022-12-05T06:23:46.501Z,41.20
2022-12-05T06:26:15.473Z,41.20
2022-12-05T06:28:43.179Z,41.40
2022-12-05T06:31:11.251Z,41.20
2022-12-05T06:33:40.422Z,41.10
2022-12-05T06:36:09.537Z,41.40
2022-12-05T06:38:41.761Z,41.10
2022-12-05T06:41:10.933Z,41.40
2022-12-05T06:43:38.619Z,41.30
2022-12-05T06:46:06.813Z,41.20
2022-12-05T06:48:34.591Z,41.40
2022-12-05T06:51:03.631Z,41.40
2022-12-05T06:53:31.294Z,41.30
2022-12-05T06:55:59.555Z,42.00
2022-12-05T06:58:27.308Z,41.40
2022-12-05T07:01:15.637Z,41.40
2022-12-05T07:03:44.285Z,41.60
2022-12-05T07:06:13.345Z,41.60
2022-12-05T07:08:41.406Z,41.70
2022-12-05T07:11:09.101Z,41.60
2022-12-05T07:13:36.802Z,41.60
2022-12-05T07:16:07.127Z,41.60
2022-12-05T07:18:35.271Z,41.50
2022-12-05T07:21:12.865Z,41.60
2022-12-05T07:23:43.080Z,41.70
2022-12-05T07:26:12.081Z,41.70
2022-12-05T07:28:39.931Z,41.80
2022-12-05T07:31:08.879Z,41.80
2022-12-05T07:33:42.623Z,41.70
2022-12-05T07:36:11.637Z,42.50
2022-12-05T07:38:39.528Z,41.80
2022-12-05T07:41:13.368Z,41.90
2022-12-05T07:43:41.606Z,41.90
2022-12-05T07:46:11.212Z,42.00
2022-12-05T07:48:39.275Z,41.90
2022-12-05T07:51:07.691Z,42.00
2022-12-05T07:53:35.452Z,42.00
2022-12-05T07:56:03.975Z,42.00
2022-12-05T07:58:33.190Z,42.00
2022-12-05T08:01:07.396Z,42.10
2022-12-05T08:03:35.132Z,42.00
2022-12-05T08:06:03.511Z,42.10
2022-12-05T08:08:31.283Z,42.20
2022-12-05T08:11:03.483Z,42.20
2022-12-05T08:13:31.158Z,42.30
2022-12-05T08:16:03.516Z,42.10
2022-12-05T08:18:31.323Z,42.20
2022-12-05T08:21:02.915Z,42.20
2022-12-05T08:23:31.622Z,42.20
2022-12-05T08:26:02.639Z,42.40
2022-12-05T08:28:30.579Z,42.40
2022-12-05T08:31:04.718Z,42.40
2022-12-05T08:33:32.415Z,42.50
2022-12-05T08:36:01.779Z,42.40
2022-12-05T08:38:29.473Z,42.40
2022-12-05T08:40:57.127Z,42.50
2022-12-05T08:43:24.767Z,42.60
2022-12-05T08:45:52.682Z,42.60
2022-12-05T08:48:28.814Z,42.60
2022-12-05T08:50:57.234Z,42.60
2022-12-05T08:53:24.928Z,42.70
2022-12-05T08:55:52.590Z,42.70
2022-12-05T08:58:20.245Z,42.70
2022-12-05T09:00:47.875Z,42.70
2022-12-05T09:03:15.524Z,42.70
2022-12-05T09:05:44.499Z,42.90
2022-12-05T09:08:12.238Z,43.00
2022-12-05T09:10:39.976Z,43.00
2022-12-05T09:13:07.677Z,43.10
2022-12-05T09:15:35.388Z,43.00
2022-12-05T09:18:03.088Z,43.10
2022-12-05T09:20:30.729Z,43.10
2022-12-05T09:22:59.707Z,43.10
2022-12-05T09:25:27.431Z,43.10
2022-12-05T09:27:55.068Z,43.10
2022-12-05T09:30:22.796Z,43.10
2022-12-05T09:32:50.461Z,43.10
2022-12-05T09:35:18.242Z,43.10
2022-12-05T09:37:45.897Z,43.20
2022-12-05T09:40:18.091Z,43.20
2022-12-05T09:42:54.665Z,43.30
2022-12-05T09:45:27.654Z,43.30
2022-12-05T09:47:58.631Z,43.30
2022-12-05T09:50:28.114Z,43.30
2022-12-05T09:53:07.248Z,43.30
2022-12-05T09:55:41.409Z,43.30
2022-12-05T09:58:31.666Z,43.30
2022-12-05T10:01:03.171Z,43.40
2022-12-05T10:03:34.738Z,43.50
2022-12-05T10:06:07.887Z,43.50
2022-12-05T10:08:39.482Z,43.50
2022-12-05T10:11:10.792Z,43.50
2022-12-05T10:13:45.346Z,43.50
2022-12-05T10:16:14.831Z,43.40
2022-12-05T10:18:44.013Z,43.50
2022-12-05T10:21:16.182Z,43.40
2022-12-05T10:23:57.412Z,43.50
2022-12-05T10:26:29.198Z,43.50
2022-12-05T10:28:58.283Z,43.50
2022-12-05T10:31:28.315Z,43.50
2022-12-05T10:33:59.472Z,43.60
2022-12-05T10:36:27.412Z,43.50
2022-12-05T10:38:56.667Z,43.60
2022-12-05T10:41:24.372Z,43.60
2022-12-05T10:43:53.410Z,43.60
2022-12-05T10:46:21.141Z,43.70
2022-12-05T10:48:48.818Z,43.60
2022-12-05T10:51:17.745Z,43.80
2022-12-05T10:53:49.347Z,43.80
2022-12-05T10:56:39.331Z,43.70
2022-12-05T10:59:08.778Z,43.70
2022-12-05T11:01:38.440Z,43.80
2022-12-05T11:04:13.841Z,43.80
2022-12-05T11:06:41.711Z,43.90
2022-12-05T11:09:15.278Z,43.90
2022-12-05T11:11:43.010Z,43.90
2022-12-05T11:14:22.913Z,44.00
2022-12-05T11:16:53.403Z,44.00
2022-12-05T11:19:26.252Z,44.00
2022-12-05T11:21:54.133Z,44.00
2022-12-05T11:24:23.238Z,43.90
2022-12-05T11:26:51.470Z,43.90
2022-12-05T11:29:34.506Z,44.00
2022-12-05T11:32:02.379Z,43.90
2022-12-05T11:34:32.973Z,44.00
2022-12-05T11:37:02.477Z,44.00
2022-12-05T11:39:30.177Z,44.10
2022-12-05T11:42:06.315Z,44.20
2022-12-05T11:44:43.910Z,44.30
2022-12-05T11:47:16.652Z,44.30
2022-12-05T11:50:12.624Z,44.30
2022-12-05T11:52:49.046Z,44.30
2022-12-05T11:55:17.351Z,44.40
2022-12-05T11:58:06.143Z,44.40
2022-12-05T12:00:37.478Z,45.10
2022-12-05T12:03:32.883Z,44.50
2022-12-05T12:06:06.600Z,44.50
2022-12-05T12:08:36.299Z,44.50
2022-12-05T12:11:07.945Z,44.60
2022-12-05T12:13:43.258Z,44.70
2022-12-05T12:16:15.540Z,44.70
2022-12-05T12:19:10.724Z,44.70
2022-12-05T12:21:46.346Z,44.70
2022-12-05T12:24:18.595Z,44.80
2022-12-05T12:26:50.458Z,44.90
2022-12-05T12:29:23.640Z,44.80
2022-12-05T12:31:59.106Z,44.80
2022-12-05T12:34:40.272Z,45.00
2022-12-05T12:37:13.509Z,45.00
2022-12-05T12:39:45.114Z,44.90
2022-12-05T12:42:21.451Z,45.00
2022-12-05T12:45:16.710Z,45.00
2022-12-05T12:47:59.860Z,45.00
2022-12-05T12:50:29.108Z,45.10
2022-12-05T12:53:16.890Z,45.00
2022-12-05T12:55:47.570Z,45.10
2022-12-05T12:58:21.771Z,45.10
2022-12-05T13:00:56.559Z,45.10
2022-12-05T13:03:26.603Z,45.20
2022-12-05T13:05:56.498Z,45.20
2022-12-05T13:08:27.231Z,45.20
2022-12-05T13:10:54.888Z,45.20
2022-12-05T13:13:25.115Z,45.20
2022-12-05T13:15:53.787Z,45.20
2022-12-05T13:18:22.560Z,45.30
2022-12-05T13:20:52.546Z,45.30
2022-12-05T13:23:22.301Z,45.30
2022-12-05T13:25:50.313Z,45.30
2022-12-05T13:28:26.512Z,45.30
2022-12-05T13:31:01.685Z,46.00
2022-12-05T13:33:32.054Z,45.40
2022-12-05T13:36:23.183Z,45.50
2022-12-05T13:39:08.566Z,45.40
2022-12-05T13:41:57.649Z,45.50
2022-12-05T13:44:33.177Z,45.50
2022-12-05T13:47:01.115Z,45.50
2022-12-05T13:49:32.502Z,45.50
2022-12-05T13:52:07.212Z,45.60
2022-12-05T13:54:34.892Z,45.60
2022-12-05T13:57:03.106Z,45.60
2022-12-05T14:00:01.068Z,45.60
2022-12-05T14:02:52.191Z,45.60
2022-12-05T14:05:40.120Z,45.60
2022-12-05T14:08:46.723Z,45.70
2022-12-05T14:11:15.741Z,45.70
2022-12-05T14:13:45.029Z,45.70
2022-12-05T14:16:44.308Z,45.70
2022-12-05T14:19:49.809Z,45.80
2022-12-05T14:22:38.765Z,45.90
2022-12-05T14:25:10.160Z,45.90
2022-12-05T14:27:46.673Z,45.90
2022-12-05T14:30:25.373Z,45.90
2022-12-05T14:32:53.762Z,45.90
2022-12-05T14:35:24.975Z,45.90
2022-12-05T14:37:53.595Z,45.90
2022-12-05T14:40:24.976Z,46.00
2022-12-05T14:42:55.446Z,46.00
2022-12-05T14:45:29.098Z,46.10
2022-12-05T14:47:57.872Z,46.10
2022-12-05T14:50:40.373Z,46.10
2022-12-05T14:53:16.431Z,46.10
2022-12-05T14:55:44.141Z,46.10
2022-12-05T14:58:13.391Z,46.10
2022-12-05T15:00:46.534Z,46.10
2022-12-05T15:03:19.956Z,46.00
2022-12-05T15:05:47.716Z,46.30
2022-12-05T15:08:15.535Z,46.30
2022-12-05T15:10:45.055Z,46.20
2022-12-05T15:13:15.534Z,46.50
2022-12-05T15:15:44.304Z,46.50
2022-12-05T15:18:15.553Z,46.30
2022-12-05T15:20:44.852Z,46.20
2022-12-05T15:23:41.444Z,46.20
2022-12-05T15:26:44.801Z,46.30
2022-12-05T15:29:07.951Z,46.60
2022-12-05T15:31:36.826Z,46.40
2022-12-05T15:34:07.139Z,46.60
2022-12-05T15:36:36.656Z,46.20
2022-12-05T15:39:06.318Z,46.50
2022-12-05T15:41:34.125Z,46.70
2022-12-05T15:44:01.952Z,46.70
2022-12-05T15:46:31.898Z,46.60
2022-12-05T15:49:01.137Z,46.90
2022-12-05T15:51:32.672Z,46.80
2022-12-05T15:54:01.913Z,46.70
2022-12-05T15:56:31.771Z,46.50
2022-12-05T15:59:02.686Z,46.70
2022-12-05T16:01:32.178Z,46.50
2022-12-05T16:04:00.935Z,46.50
2022-12-05T16:06:30.381Z,46.50
2022-12-05T16:08:58.334Z,46.80
2022-12-05T16:11:26.123Z,47.10
2022-12-05T16:13:56.851Z,46.70
2022-12-05T16:16:26.844Z,46.50
2022-12-05T16:18:56.714Z,47.00
2022-12-05T16:21:38.518Z,46.50
2022-12-05T16:24:08.481Z,46.80
2022-12-05T16:26:40.312Z,47.10
2022-12-05T16:29:09.771Z,47.40
2022-12-05T16:31:38.989Z,46.80
2022-12-05T16:34:09.216Z,47.20
2022-12-05T16:36:36.951Z,47.60
2022-12-05T16:39:05.487Z,47.20
2022-12-05T16:41:36.817Z,47.20
2022-12-05T16:44:11.447Z,47.30
2022-12-05T16:46:46.795Z,47.40
2022-12-05T16:49:32.970Z,47.20
2022-12-05T16:52:01.979Z,47.10
2022-12-05T16:54:29.888Z,47.10
2022-12-05T16:56:57.722Z,47.40
2022-12-05T16:59:26.699Z,47.40
2022-12-05T17:01:54.560Z,47.50
2022-12-05T17:04:23.859Z,47.50
2022-12-05T17:06:51.616Z,47.60
2022-12-05T17:09:19.358Z,48.10
2022-12-05T17:11:47.993Z,48.00
2022-12-05T17:14:17.291Z,48.00
2022-12-05T17:16:45.146Z,47.70
2022-12-05T17:19:13.046Z,47.10
2022-12-05T17:21:42.882Z,46.90
2022-12-05T17:24:13.854Z,46.80
2022-12-05T17:26:41.704Z,46.80
2022-12-05T17:29:10.085Z,46.30
2022-12-05T17:31:38.002Z,46.60
2022-12-05T17:34:11.395Z,46.50
2022-12-05T17:36:39.323Z,46.70
2022-12-05T17:39:09.127Z,46.90
2022-12-05T17:41:37.159Z,46.80
2022-12-05T17:44:05.076Z,47.00
2022-12-05T17:46:32.892Z,47.10
2022-12-05T17:49:00.658Z,47.10
2022-12-05T17:51:28.796Z,47.20
2022-12-05T17:53:56.477Z,47.40
2022-12-05T17:56:25.576Z,47.70
2022-12-05T17:58:53.371Z,47.80
2022-12-05T18:01:21.288Z,47.90
2022-12-05T18:03:49.468Z,47.90
2022-12-05T18:06:17.499Z,48.20
2022-12-05T18:08:45.409Z,47.80
2022-12-05T18:11:32.183Z,47.20
2022-12-05T18:14:01.381Z,47.60
2022-12-05T18:16:29.250Z,47.90
2022-12-05T18:18:57.097Z,48.00
2022-12-05T18:21:24.900Z,47.80
2022-12-05T18:23:52.635Z,47.80
2022-12-05T18:26:20.362Z,47.80
2022-12-05T18:28:48.129Z,47.90
2022-12-05T18:31:17.404Z,48.00
2022-12-05T18:33:45.199Z,48.20
2022-12-05T18:36:15.381Z,48.20
2022-12-05T18:38:43.602Z,48.20
2022-12-05T18:41:11.341Z,48.30
2022-12-05T18:43:40.000Z,48.40
2022-12-05T18:46:08.278Z,48.50
2022-12-05T18:48:40.816Z,48.60
2022-12-05T18:51:11.190Z,48.60
2022-12-05T18:53:38.902Z,48.70
2022-12-05T18:56:24.211Z,48.70
2022-12-05T18:58:56.960Z,48.80
2022-12-05T19:01:24.805Z,48.80
2022-12-05T19:03:54.168Z,48.80
2022-12-05T19:06:22.946Z,48.90
2022-12-05T19:08:50.687Z,49.00
2022-12-05T19:11:18.964Z,49.10
2022-12-05T19:13:47.501Z,49.00
2022-12-05T19:16:18.416Z,49.10
2022-12-05T19:18:46.587Z,49.20
2022-12-05T19:21:15.587Z,49.20
2022-12-05T19:23:43.283Z,49.20
2022-12-05T19:26:11.014Z,49.30
2022-12-05T19:28:38.774Z,49.30
2022-12-05T19:31:07.502Z,49.40
2022-12-05T19:33:35.773Z,49.30
2022-12-05T19:36:05.309Z,49.40
2022-12-05T19:38:34.897Z,49.40
2022-12-05T19:41:02.762Z,49.50
2022-12-05T19:43:30.734Z,50.10
2022-12-05T19:45:58.627Z,49.60
2022-12-05T19:48:27.318Z,49.60
2022-12-05T19:50:55.700Z,49.60
2022-12-05T19:53:23.487Z,49.60
2022-12-05T19:55:52.711Z,49.70
2022-12-05T19:58:20.358Z,49.70
2022-12-05T20:00:48.244Z,49.70
2022-12-05T20:03:15.924Z,49.80
2022-12-05T20:05:43.586Z,49.80
2022-12-05T20:08:11.381Z,49.80
2022-12-05T20:10:39.075Z,49.80
2022-12-05T20:13:24.273Z,49.80
2022-12-05T20:15:55.679Z,49.90
2022-12-05T20:18:23.337Z,49.90
2022-12-05T20:20:57.459Z,49.90
2022-12-05T20:23:25.197Z,50.00
2022-12-05T20:25:52.871Z,50.00
2022-12-05T20:28:21.865Z,50.00
2022-12-05T20:30:49.660Z,50.10
2022-12-05T20:33:17.400Z,50.20
2022-12-05T20:35:45.078Z,50.30
2022-12-05T20:38:13.514Z,50.30
2022-12-05T20:40:41.181Z,50.50
2022-12-05T20:43:08.843Z,50.70
2022-12-05T20:45:37.831Z,50.80
2022-12-05T20:48:05.697Z,51.00
2022-12-05T20:50:34.896Z,51.00
2022-12-05T20:53:02.560Z,51.10
2022-12-05T20:55:30.954Z,51.20
2022-12-05T20:58:02.438Z,51.20
2022-12-05T21:00:32.650Z,51.20
2022-12-05T21:03:01.727Z,51.30
2022-12-05T21:05:29.409Z,51.40
2022-12-05T21:07:57.123Z,51.50
2022-12-05T21:10:24.832Z,51.50
2022-12-05T21:12:53.102Z,51.50
2022-12-05T21:15:20.815Z,51.50
2022-12-05T21:17:48.499Z,51.50
2022-12-05T21:20:17.570Z,51.60
2022-12-05T21:22:45.272Z,51.50
2022-12-05T21:25:12.928Z,51.50
2022-12-05T21:27:40.582Z,51.40
2022-12-05T21:30:09.609Z,51.40
2022-12-05T21:32:37.971Z,51.40
2022-12-05T21:35:07.090Z,51.30
2022-12-05T21:37:36.638Z,51.20
2022-12-05T21:40:04.469Z,51.20
2022-12-05T21:42:32.146Z,51.20
2022-12-05T21:45:00.056Z,51.20
2022-12-05T21:47:28.911Z,51.20
2022-12-05T21:49:56.794Z,51.20
2022-12-05T21:52:24.784Z,51.20
2022-12-05T21:54:53.773Z,51.10
2022-12-05T21:57:21.443Z,51.10
2022-12-05T21:59:49.142Z,51.00
2022-12-05T22:02:16.852Z,51.00
2022-12-05T22:04:44.550Z,51.00
2022-12-05T22:07:12.199Z,51.00
2022-12-05T22:09:39.844Z,50.90
2022-12-05T22:12:08.965Z,50.90
2022-12-05T22:14:36.626Z,50.90
2022-12-05T22:17:04.283Z,50.90
2022-12-05T22:19:31.928Z,50.80
2022-12-05T22:21:59.615Z,50.70
2022-12-05T22:24:27.301Z,50.80
2022-12-05T22:26:54.939Z,50.70
2022-12-05T22:29:23.951Z,50.70
2022-12-05T22:31:51.660Z,50.60
2022-12-05T22:34:19.372Z,50.60
2022-12-05T22:36:48.966Z,50.50
2022-12-05T22:39:16.632Z,50.50
2022-12-05T22:41:44.527Z,50.50
2022-12-05T22:44:12.278Z,50.50
2022-12-05T22:46:41.371Z,50.40
2022-12-05T22:49:09.062Z,50.30
2022-12-05T22:51:36.731Z,50.30
2022-12-05T22:54:04.419Z,50.30
2022-12-05T22:56:32.079Z,50.30
2022-12-05T22:59:00.416Z,50.30
2022-12-05T23:01:29.122Z,50.30
2022-12-05T23:03:59.040Z,50.30
2022-12-05T23:06:27.025Z,50.20
2022-12-05T23:08:54.734Z,50.20
2022-12-05T23:11:22.853Z,50.10
2022-12-05T23:13:50.583Z,50.10
2022-12-05T23:16:21.261Z,50.10
2022-12-05T23:18:49.576Z,50.00
2022-12-05T23:21:19.902Z,49.90
2022-12-05T23:23:47.739Z,50.50
2022-12-05T23:26:15.482Z,49.80
2022-12-05T23:28:43.202Z,49.70
2022-12-05T23:31:11.259Z,50.30
2022-12-05T23:33:39.441Z,49.60
2022-12-05T23:36:08.035Z,49.50
2022-12-05T23:38:37.472Z,49.50
2022-12-05T23:41:06.232Z,49.50
2022-12-05T23:43:34.731Z,49.50
2022-12-05T23:46:02.572Z,49.40
2022-12-05T23:48:30.586Z,49.40
2022-12-05T23:50:59.799Z,49.40
2022-12-05T23:53:27.535Z,49.30
2022-12-05T23:55:56.575Z,49.30
2022-12-05T23:58:24.228Z,49.20
